Time;durP1;ratioP1;P1;durP2;ratioP2;P2;SDS_P1;SDS_P2;PMS_P1;PMS_P2;Temp;Humidity;BMP_temperature;BMP_pressure;BME280_temperature;BME280_humidity;BME280_pressure;Samples;Min_cycle;Max_cycle;Signal;HPM_P1;HPM_P2
2022/08/30 00:02:42;;;;;;;2.95;1.40;;;14.90;99.90;;;;;;5105988;28;20200;-70
2022/08/30 00:05:12;;;;;;;1.30;1.15;;;15.00;99.90;;;;;;5101849;28;20547;-70
2022/08/30 00:07:39;;;;;;;2.37;1.57;;;15.00;99.90;;;;;;5101394;28;20228;-70
2022/08/30 00:10:07;;;;;;;2.53;1.38;;;14.90;99.90;;;;;;5092158;28;20206;-70
2022/08/30 00:12:34;;;;;;;1.75;1.65;;;14.80;99.90;;;;;;5111277;28;20197;-70
2022/08/30 00:15:01;;;;;;;1.75;1.17;;;14.90;99.90;;;;;;5110290;28;20244;-71
2022/08/30 00:17:28;;;;;;;0.80;0.80;;;14.80;99.90;;;;;;5092225;28;20289;-70
2022/08/30 00:19:55;;;;;;;1.67;1.40;;;14.80;99.90;;;;;;5101180;28;20266;-70
2022/08/30 00:22:24;;;;;;;1.60;1.40;;;14.80;99.90;;;;;;5092121;28;20550;-70
2022/08/30 00:24:51;;;;;;;2.33;1.20;;;14.80;99.90;;;;;;5095352;28;20221;-70
2022/08/30 00:27:18;;;;;;;1.10;1.02;;;14.80;99.90;;;;;;5110072;28;20266;-70
2022/08/30 00:29:45;;;;;;;1.10;1.00;;;14.80;99.90;;;;;;5095571;28;20259;-70
2022/08/30 00:32:12;;;;;;;1.60;1.50;;;14.50;99.90;;;;;;5109429;28;20209;-70
2022/08/30 00:34:39;;;;;;;2.53;1.87;;;14.20;99.90;;;;;;5090757;28;20224;-71
2022/08/30 00:37:06;;;;;;;1.90;1.80;;;13.80;99.90;;;;;;5095038;28;20238;-70
2022/08/30 00:39:35;;;;;;;2.00;1.90;;;13.50;99.90;;;;;;5111887;27;20201;-70
2022/08/30 00:42:01;;;;;;;1.90;1.70;;;13.60;99.90;;;;;;5111927;28;20232;-71
2022/08/30 00:44:28;;;;;;;2.80;1.70;;;13.70;99.90;;;;;;5118505;27;20292;-70
2022/08/30 00:46:55;;;;;;;1.60;1.50;;;13.90;99.90;;;;;;5111474;28;20688;-70
2022/08/30 00:49:23;;;;;;;1.70;1.60;;;14.10;99.90;;;;;;5111944;28;20609;-70
2022/08/30 00:51:50;;;;;;;1.90;1.80;;;14.10;99.90;;;;;;5093794;28;20206;-70
2022/08/30 00:54:18;;;;;;;2.90;2.70;;;14.20;99.90;;;;;;5091927;28;20197;-70
2022/08/30 00:56:48;;;;;;;2.53;2.33;;;14.00;99.90;;;;;;5106413;28;20288;-70
2022/08/30 00:59:15;;;;;;;1.90;1.80;;;13.50;99.90;;;;;;5092317;28;20606;-70
2022/08/30 01:01:42;;;;;;;2.10;2.00;;;13.20;99.90;;;;;;5091986;28;20237;-70
2022/08/30 01:04:12;;;;;;;1.80;1.70;;;13.30;99.90;;;;;;5091214;28;20335;-70
2022/08/30 01:06:40;;;;;;;3.47;1.80;;;13.70;99.90;;;;;;5092684;28;20312;-70
2022/08/30 01:09:08;;;;;;;2.23;1.97;;;13.80;99.90;;;;;;5091507;28;20224;-70
2022/08/30 01:11:37;;;;;;;2.43;2.23;;;13.80;99.90;;;;;;5090643;28;20197;-70
2022/08/30 01:14:07;;;;;;;2.10;1.90;;;14.00;99.90;;;;;;5092223;28;20201;-70
2022/08/30 01:16:35;;;;;;;3.20;2.30;;;14.00;99.90;;;;;;5091754;28;20321;-70
2022/08/30 01:19:02;;;;;;;2.60;2.40;;;14.00;99.90;;;;;;5091129;28;20233;-70
2022/08/30 01:21:41;;;;;;;3.33;2.83;;;14.10;99.90;;;;;;5116309;27;20570;-70
2022/08/30 01:24:10;;;;;;;3.60;3.00;;;14.00;99.90;;;;;;5109103;28;20253;-70
2022/08/30 01:26:38;;;;;;;2.63;2.43;;;14.00;99.90;;;;;;5094850;28;20206;-70
2022/08/30 01:29:08;;;;;;;5.07;2.50;;;13.90;99.90;;;;;;5091364;28;20209;-70
2022/08/30 01:31:35;;;;;;;3.30;2.50;;;14.00;99.90;;;;;;5091805;28;20247;-70
2022/08/30 01:34:03;;;;;;;2.20;2.10;;;14.00;99.90;;;;;;5110587;28;20248;-71
2022/08/30 01:36:31;;;;;;;2.30;2.10;;;14.00;99.90;;;;;;5095942;28;20217;-70
2022/08/30 01:38:59;;;;;;;2.60;2.40;;;14.10;99.90;;;;;;5091066;28;20278;-70
2022/08/30 01:41:29;;;;;;;2.17;2.07;;;14.10;99.90;;;;;;5090153;28;20229;-70
2022/08/30 01:43:59;;;;;;;2.50;2.30;;;14.10;99.90;;;;;;5090450;28;20292;-70
2022/08/30 01:46:29;;;;;;;4.60;2.10;;;14.10;99.90;;;;;;5090886;28;20194;-70
2022/08/30 01:48:57;;;;;;;3.13;2.40;;;14.20;99.90;;;;;;5090018;28;20282;-70
2022/08/30 01:51:27;;;;;;;2.10;2.00;;;14.20;99.90;;;;;;5091222;28;20231;-71
2022/08/30 01:53:54;;;;;;;2.77;2.37;;;14.20;99.90;;;;;;5090231;28;20205;-70
2022/08/30 01:56:22;;;;;;;7.00;5.70;;;14.10;99.90;;;;;;5128241;28;20192;-70
2022/08/30 01:58:51;;;;;;;6.23;5.10;;;14.10;99.90;;;;;;5094761;28;20197;-71
2022/08/30 02:01:22;;;;;;;2.70;2.50;;;14.20;99.90;;;;;;5111452;28;20747;-70
2022/08/30 02:03:49;;;;;;;3.93;3.10;;;13.40;99.90;;;;;;5109661;28;20197;-70
2022/08/30 02:06:18;;;;;;;4.37;3.27;;;13.30;99.90;;;;;;5097866;28;20202;-71
2022/08/30 02:08:46;;;;;;;4.67;4.27;;;13.30;99.90;;;;;;5091002;28;20225;-70
2022/08/30 02:11:14;;;;;;;7.63;5.53;;;13.60;99.90;;;;;;5089686;28;20241;-70
2022/08/30 02:13:42;;;;;;;5.23;4.73;;;13.80;99.90;;;;;;5091420;28;20221;-70
2022/08/30 02:16:14;;;;;;;4.47;4.07;;;13.80;99.90;;;;;;5094673;28;20244;-70
2022/08/30 02:18:42;;;;;;;4.13;3.73;;;13.40;99.90;;;;;;5110156;28;20614;-70
2022/08/30 02:21:09;;;;;;;8.90;3.70;;;13.40;99.90;;;;;;5097903;28;20640;-70
2022/08/30 02:23:36;;;;;;;3.40;3.00;;;13.30;99.90;;;;;;5090323;28;20197;-71
2022/08/30 02:26:04;;;;;;;3.20;2.90;;;13.10;99.90;;;;;;5090246;28;20206;-70
2022/08/30 02:28:31;;;;;;;3.37;3.17;;;13.00;99.90;;;;;;5091179;28;20644;-70
2022/08/30 02:30:58;;;;;;;3.60;3.30;;;13.00;99.90;;;;;;5098032;28;20193;-71
2022/08/30 02:33:26;;;;;;;3.50;3.07;;;13.00;99.90;;;;;;5109456;28;20599;-70
2022/08/30 02:35:54;;;;;;;3.50;2.73;;;13.10;99.90;;;;;;5101450;28;20241;-71
2022/08/30 02:38:22;;;;;;;2.70;2.50;;;13.20;99.90;;;;;;5094247;28;20230;-70
2022/08/30 02:40:49;;;;;;;3.03;2.70;;;13.30;99.90;;;;;;5094044;28;20201;-71
2022/08/30 02:43:18;;;;;;;3.03;2.70;;;13.20;99.90;;;;;;5119264;27;20474;-70
2022/08/30 02:45:45;;;;;;;4.37;3.90;;;13.10;99.90;;;;;;5134517;27;20204;-70
2022/08/30 02:48:12;;;;;;;3.30;3.00;;;13.20;99.90;;;;;;5135449;27;20216;-70
2022/08/30 02:50:41;;;;;;;4.00;3.13;;;13.50;99.90;;;;;;5120204;27;20244;-71
2022/08/30 02:53:08;;;;;;;4.77;3.43;;;13.50;99.90;;;;;;5114780;28;20196;-71
2022/08/30 02:55:35;;;;;;;3.37;2.67;;;13.60;99.90;;;;;;5115166;28;20193;-71
2022/08/30 02:58:02;;;;;;;3.50;3.20;;;13.60;99.90;;;;;;5102947;28;20205;-71
2022/08/30 03:00:29;;;;;;;2.97;2.77;;;13.60;99.90;;;;;;5119017;27;20271;-71
2022/08/30 03:02:56;;;;;;;3.33;3.03;;;13.60;99.90;;;;;;5113324;28;20193;-71
2022/08/30 03:05:24;;;;;;;3.40;3.10;;;13.70;99.90;;;;;;5108543;28;20794;-71
2022/08/30 03:07:53;;;;;;;3.60;3.30;;;13.80;99.90;;;;;;5113601;28;20228;-72
2022/08/30 03:10:20;;;;;;;3.40;3.10;;;13.90;99.90;;;;;;5113172;28;20198;-68
2022/08/30 03:12:47;;;;;;;3.07;2.77;;;14.00;99.90;;;;;;5114703;28;20290;-71
2022/08/30 03:15:15;;;;;;;3.00;2.80;;;14.00;99.90;;;;;;5109165;28;20247;-71
2022/08/30 03:17:43;;;;;;;4.20;2.80;;;14.10;99.90;;;;;;5113240;27;20611;-72
2022/08/30 03:20:10;;;;;;;2.77;2.50;;;14.10;99.90;;;;;;5105402;27;20513;-72
2022/08/30 03:22:38;;;;;;;2.40;2.30;;;14.20;99.90;;;;;;5115709;27;20707;-71
2022/08/30 03:25:07;;;;;;;3.23;3.00;;;14.30;99.90;;;;;;5105972;28;20535;-72
2022/08/30 03:27:35;;;;;;;4.10;3.47;;;14.10;99.90;;;;;;5113719;27;20277;-72
2022/08/30 03:30:03;;;;;;;4.33;3.93;;;13.90;99.90;;;;;;5127482;27;20196;-71
2022/08/30 03:32:30;;;;;;;3.80;3.50;;;13.80;99.90;;;;;;5110432;27;20209;-71
2022/08/30 03:34:58;;;;;;;3.67;3.37;;;14.00;99.90;;;;;;5112719;28;20197;-71
2022/08/30 03:37:26;;;;;;;4.50;4.10;;;14.10;99.90;;;;;;5102094;28;20213;-70
2022/08/30 03:39:53;;;;;;;5.57;3.63;;;14.00;99.90;;;;;;5092433;28;20296;-71
2022/08/30 03:42:22;;;;;;;4.17;3.77;;;14.00;99.90;;;;;;5093800;28;20198;-71
2022/08/30 03:44:49;;;;;;;5.13;3.80;;;14.10;99.90;;;;;;5093573;28;20288;-71
2022/08/30 03:47:16;;;;;;;4.63;4.10;;;14.20;99.90;;;;;;5092241;28;20610;-71
2022/08/30 03:49:43;;;;;;;5.77;5.20;;;14.10;99.90;;;;;;5093846;28;20700;-71
2022/08/30 03:52:10;;;;;;;6.90;4.83;;;14.10;99.90;;;;;;5093463;28;20229;-70
2022/08/30 03:54:37;;;;;;;5.78;4.63;;;14.20;99.90;;;;;;5122517;27;20201;-71
2022/08/30 03:57:04;;;;;;;6.47;4.90;;;14.20;99.90;;;;;;5134580;27;20200;-71
2022/08/30 03:59:33;;;;;;;6.17;5.07;;;14.30;99.90;;;;;;5110692;27;20205;-71
2022/08/30 04:02:00;;;;;;;7.83;6.13;;;14.40;99.90;;;;;;5111646;28;20696;-71
2022/08/30 04:04:27;;;;;;;9.07;6.67;;;14.40;99.90;;;;;;5112451;28;20643;-70
2022/08/30 04:06:55;;;;;;;10.20;7.20;;;14.30;99.90;;;;;;5112821;28;20197;-68
2022/08/30 04:09:23;;;;;;;11.83;8.83;;;14.20;99.90;;;;;;5113311;28;20251;-68
2022/08/30 04:11:50;;;;;;;17.17;10.17;;;14.20;99.90;;;;;;5113855;28;20209;-71
2022/08/30 04:14:18;;;;;;;15.60;10.00;;;14.10;99.90;;;;;;5113045;28;20200;-68
2022/08/30 04:16:46;;;;;;;19.93;11.73;;;14.10;99.90;;;;;;5113251;28;20621;-69
2022/08/30 04:19:13;;;;;;;19.43;11.80;;;14.00;99.90;;;;;;5112817;28;20293;-67
2022/08/30 04:21:40;;;;;;;18.33;11.50;;;13.90;99.90;;;;;;5112542;28;20289;-68
2022/08/30 04:24:07;;;;;;;22.40;12.23;;;13.90;99.90;;;;;;5112355;28;20254;-70
2022/08/30 04:26:34;;;;;;;21.13;13.80;;;13.90;99.90;;;;;;5112461;28;20205;-70
2022/08/30 04:29:01;;;;;;;21.53;12.27;;;13.90;99.90;;;;;;5112210;28;20224;-68
2022/08/30 04:31:28;;;;;;;28.77;13.33;;;13.90;99.90;;;;;;5112404;28;20288;-70
2022/08/30 04:33:56;;;;;;;22.43;12.87;;;13.80;99.90;;;;;;5101733;28;20636;-68
2022/08/30 04:36:24;;;;;;;24.23;12.63;;;13.80;99.90;;;;;;5118338;27;20231;-69
2022/08/30 04:38:51;;;;;;;24.87;12.70;;;13.70;99.90;;;;;;5112947;28;20201;-70
2022/08/30 04:41:23;;;;;;;27.03;12.43;;;13.80;99.90;;;;;;5111547;28;20228;-69
2022/08/30 04:43:50;;;;;;;21.70;10.23;;;13.80;99.90;;;;;;5112841;28;20197;-70
2022/08/30 04:46:18;;;;;;;30.83;12.53;;;13.60;99.90;;;;;;5113208;28;20553;-69
2022/08/30 04:48:45;;;;;;;31.20;12.80;;;13.60;99.90;;;;;;5110926;28;20278;-68
2022/08/30 04:51:16;;;;;;;27.90;11.20;;;13.60;99.90;;;;;;5116053;27;20549;-68
2022/08/30 04:53:44;;;;;;;48.30;13.93;;;13.60;99.90;;;;;;5114186;27;20197;-69
2022/08/30 04:56:15;;;;;;;23.80;11.30;;;13.50;99.90;;;;;;5114099;27;20193;-69
2022/08/30 04:58:42;;;;;;;24.43;12.70;;;13.60;99.90;;;;;;5117373;27;20205;-68
2022/08/30 05:01:13;;;;;;;24.90;11.27;;;13.60;99.90;;;;;;5117979;27;20223;-69
2022/08/30 05:03:40;;;;;;;25.33;12.77;;;13.60;99.90;;;;;;5131388;27;20192;-69
2022/08/30 05:06:07;;;;;;;40.50;12.63;;;13.70;99.90;;;;;;5109748;27;20197;-69
2022/08/30 05:08:35;;;;;;;30.93;13.10;;;13.60;99.90;;;;;;5111539;27;20256;-67
2022/08/30 05:11:04;;;;;;;27.23;12.13;;;13.70;99.90;;;;;;5116242;27;20598;-71
2022/08/30 05:13:33;;;;;;;29.33;12.33;;;13.60;99.90;;;;;;5128851;27;20218;-69
2022/08/30 05:16:00;;;;;;;27.10;12.83;;;13.70;99.90;;;;;;5111854;28;20225;-69
2022/08/30 05:18:27;;;;;;;25.13;12.47;;;13.80;99.90;;;;;;5105077;28;20272;-68
2022/08/30 05:21:04;;;;;;;28.53;12.73;;;13.80;99.90;;;;;;5097715;28;20627;-68
2022/08/30 05:23:31;;;;;;;28.73;11.67;;;13.80;99.90;;;;;;5109821;28;20533;-68
2022/08/30 05:26:03;;;;;;;18.90;10.73;;;13.80;99.90;;;;;;5108858;28;20236;-69
2022/08/30 05:28:30;;;;;;;22.13;11.10;;;13.80;99.90;;;;;;5105781;28;20229;-70
2022/08/30 05:30:57;;;;;;;20.93;12.40;;;13.70;99.90;;;;;;5101138;28;20198;-69
2022/08/30 05:33:24;;;;;;;21.83;13.03;;;13.80;99.90;;;;;;5100033;28;20280;-67
2022/08/30 05:35:51;;;;;;;20.13;11.50;;;13.80;99.90;;;;;;5107694;28;20272;-67
2022/08/30 05:38:19;;;;;;;22.13;11.43;;;13.80;99.90;;;;;;5118154;27;20295;-67
2022/08/30 05:40:46;;;;;;;23.67;12.80;;;13.70;99.90;;;;;;5107059;27;20243;-67
2022/08/30 05:43:15;;;;;;;22.13;13.63;;;13.80;99.90;;;;;;5100120;28;20256;-67
2022/08/30 05:45:41;;;;;;;21.37;12.90;;;13.80;99.90;;;;;;5103311;28;20243;-67
2022/08/30 05:48:08;;;;;;;25.37;13.63;;;13.80;99.90;;;;;;5103007;28;20294;-70
2022/08/30 05:50:35;;;;;;;21.80;11.87;;;13.80;99.90;;;;;;5094070;28;20263;-69
2022/08/30 05:53:02;;;;;;;23.00;12.30;;;13.80;99.90;;;;;;5102980;28;20201;-69
2022/08/30 05:55:29;;;;;;;22.87;12.33;;;13.80;99.90;;;;;;5102201;28;20193;-69
2022/08/30 05:57:56;;;;;;;22.17;12.10;;;13.90;99.90;;;;;;5098861;28;20229;-70
2022/08/30 06:00:25;;;;;;;21.13;12.37;;;14.00;99.90;;;;;;5091736;28;20259;-70
2022/08/30 06:02:54;;;;;;;21.77;11.57;;;13.90;99.90;;;;;;5090421;28;20205;-70
2022/08/30 06:05:21;;;;;;;23.60;11.87;;;13.90;99.90;;;;;;5104309;28;20193;-69
2022/08/30 06:07:48;;;;;;;21.57;10.90;;;13.90;99.90;;;;;;5103432;28;20213;-70
2022/08/30 06:10:15;;;;;;;22.10;11.50;;;13.90;99.90;;;;;;5096763;28;20670;-73
2022/08/30 06:12:42;;;;;;;22.93;12.90;;;14.00;99.90;;;;;;5134242;27;20200;-73
2022/08/30 06:15:11;;;;;;;19.73;11.37;;;14.00;99.90;;;;;;5094402;28;20198;-70
2022/08/30 06:17:39;;;;;;;17.93;10.67;;;14.00;99.90;;;;;;5110267;28;20685;-70
2022/08/30 06:20:07;;;;;;;19.27;11.10;;;14.20;99.90;;;;;;5109992;28;20728;-67
2022/08/30 06:22:34;;;;;;;21.47;12.33;;;14.20;99.90;;;;;;5098663;28;20216;-67
2022/08/30 06:25:01;;;;;;;22.83;11.93;;;14.10;99.90;;;;;;5100842;28;20332;-67
2022/08/30 06:27:30;;;;;;;18.73;10.03;;;14.10;99.90;;;;;;5106421;28;20234;-67
2022/08/30 06:29:57;;;;;;;20.97;11.77;;;14.20;99.90;;;;;;5108630;27;20220;-67
2022/08/30 06:32:23;;;;;;;19.90;10.97;;;14.20;99.90;;;;;;5113837;28;20277;-67
2022/08/30 06:34:52;;;;;;;19.73;10.60;;;14.20;99.90;;;;;;5113645;28;20674;-67
2022/08/30 06:37:19;;;;;;;21.10;11.57;;;14.10;99.90;;;;;;5094862;28;20563;-67
2022/08/30 06:39:46;;;;;;;20.60;10.87;;;14.30;99.90;;;;;;5093879;28;20197;-67
2022/08/30 06:42:13;;;;;;;21.63;10.83;;;14.30;99.90;;;;;;5105324;28;20199;-67
2022/08/30 06:44:40;;;;;;;20.07;11.37;;;14.20;99.90;;;;;;5097431;28;20613;-67
2022/08/30 06:47:07;;;;;;;19.40;10.97;;;14.30;99.90;;;;;;5095321;28;20644;-69
2022/08/30 06:49:34;;;;;;;20.13;10.73;;;14.30;99.90;;;;;;5108852;28;20223;-69
2022/08/30 06:52:03;;;;;;;21.27;11.23;;;14.50;99.90;;;;;;5106666;28;20201;-69
2022/08/30 06:54:30;;;;;;;21.70;10.27;;;14.40;99.90;;;;;;5100359;28;20237;-69
2022/08/30 06:56:57;;;;;;;19.63;11.17;;;14.40;99.90;;;;;;5108974;28;20202;-69
2022/08/30 06:59:24;;;;;;;20.03;11.40;;;14.40;99.90;;;;;;5111630;27;20559;-69
2022/08/30 07:01:51;;;;;;;18.70;10.17;;;14.40;99.90;;;;;;5106875;28;20197;-68
2022/08/30 07:04:18;;;;;;;17.77;10.73;;;14.40;99.90;;;;;;5097863;28;20671;-68
2022/08/30 07:06:45;;;;;;;19.33;10.40;;;14.50;99.90;;;;;;5114551;28;20560;-68
2022/08/30 07:09:13;;;;;;;17.23;9.67;;;14.50;99.90;;;;;;5113677;28;20809;-68
2022/08/30 07:11:40;;;;;;;17.43;9.80;;;14.40;99.90;;;;;;5114477;28;20205;-67
2022/08/30 07:14:08;;;;;;;16.77;9.70;;;14.60;99.90;;;;;;5114379;28;20674;-69
2022/08/30 07:16:35;;;;;;;16.87;9.70;;;14.70;99.90;;;;;;5107234;28;20202;-69
2022/08/30 07:19:02;;;;;;;17.33;9.47;;;14.70;99.90;;;;;;5108040;28;20586;-69
2022/08/30 07:21:32;;;;;;;17.20;9.70;;;14.60;99.90;;;;;;5100574;28;20655;-69
2022/08/30 07:24:00;;;;;;;16.33;9.67;;;14.70;99.90;;;;;;5104552;28;20603;-69
2022/08/30 07:26:31;;;;;;;16.03;9.80;;;14.70;99.90;;;;;;5095868;28;20255;-69
2022/08/30 07:28:58;;;;;;;16.95;9.93;;;14.70;99.90;;;;;;5113407;28;20220;-69
2022/08/30 07:31:25;;;;;;;19.30;9.47;;;14.80;99.90;;;;;;5113186;28;20197;-69
2022/08/30 07:33:53;;;;;;;17.43;10.00;;;14.80;99.90;;;;;;5113812;28;20284;-69
2022/08/30 07:36:21;;;;;;;17.57;10.03;;;14.80;99.90;;;;;;5106709;28;20296;-67
2022/08/30 07:38:49;;;;;;;15.18;9.90;;;14.80;99.90;;;;;;5093536;28;20197;-68
2022/08/30 07:41:19;;;;;;;16.37;9.83;;;14.70;99.90;;;;;;5092701;28;20205;-67
2022/08/30 07:43:48;;;;;;;16.63;9.97;;;14.90;99.90;;;;;;5093639;28;20675;-67
2022/08/30 07:46:15;;;;;;;16.97;9.80;;;14.90;99.90;;;;;;5094039;28;20251;-67
2022/08/30 07:48:42;;;;;;;17.67;10.07;;;15.10;99.90;;;;;;5091705;28;20270;-67
2022/08/30 07:51:11;;;;;;;15.63;9.00;;;15.20;99.90;;;;;;5105970;28;20216;-69
2022/08/30 07:53:38;;;;;;;16.73;9.33;;;15.10;99.90;;;;;;5098950;28;20197;-67
2022/08/30 07:56:05;;;;;;;16.50;9.77;;;15.30;99.90;;;;;;5093806;28;20251;-68
2022/08/30 07:58:33;;;;;;;16.88;9.80;;;15.30;99.90;;;;;;5093846;28;20201;-67
2022/08/30 08:01:01;;;;;;;19.95;10.40;;;15.40;99.90;;;;;;5093035;28;20264;-66
2022/08/30 08:03:29;;;;;;;16.80;9.47;;;15.50;99.90;;;;;;5092626;28;20564;-67
2022/08/30 08:05:56;;;;;;;19.25;10.80;;;15.30;99.90;;;;;;5093065;28;20220;-67
2022/08/30 08:08:24;;;;;;;18.43;10.80;;;15.50;99.90;;;;;;5093124;28;20608;-67
2022/08/30 08:10:51;;;;;;;18.20;10.00;;;15.60;99.90;;;;;;5125514;27;20686;-67
2022/08/30 08:13:18;;;;;;;17.83;10.37;;;15.60;99.90;;;;;;5121020;27;20201;-67
2022/08/30 08:15:45;;;;;;;18.23;10.97;;;15.60;99.90;;;;;;5113437;28;20229;-67
2022/08/30 08:18:13;;;;;;;18.10;10.70;;;15.60;99.90;;;;;;5113599;28;20208;-68
2022/08/30 08:20:40;;;;;;;18.73;10.60;;;15.60;99.90;;;;;;5114005;28;20199;-68
2022/08/30 08:23:07;;;;;;;19.95;10.55;;;15.60;99.90;;;;;;5113466;28;20208;-68
2022/08/30 08:25:38;;;;;;;20.52;10.82;;;15.70;99.90;;;;;;5113826;28;20257;-68
2022/08/30 08:28:05;;;;;;;18.50;10.75;;;15.80;99.90;;;;;;5114038;28;20628;-68
2022/08/30 08:30:35;;;;;;;16.67;9.40;;;15.80;99.90;;;;;;5114305;28;20207;-68
2022/08/30 08:33:02;;;;;;;20.60;11.98;;;15.80;99.90;;;;;;5113344;28;20273;-68
2022/08/30 08:35:31;;;;;;;19.17;11.43;;;15.80;99.90;;;;;;5113890;28;20205;-68
2022/08/30 08:37:58;;;;;;;18.10;10.38;;;15.70;99.90;;;;;;5113544;28;20204;-68
2022/08/30 08:40:25;;;;;;;19.80;11.15;;;15.80;99.90;;;;;;5113219;28;20346;-68
2022/08/30 08:43:00;;;;;;;19.43;10.77;;;15.80;99.90;;;;;;5113496;28;20558;-68
2022/08/30 08:45:38;;;;;;;21.70;12.07;;;15.90;99.90;;;;;;5114325;28;20616;-68
2022/08/30 08:48:10;;;;;;;20.50;11.88;;;15.90;99.90;;;;;;5113364;28;20205;-68
2022/08/30 08:53:33;;;;;;;20.88;11.63;;;16.10;99.90;;;;;;5105224;28;20232;-68
2022/08/30 08:53:34;;;;;;;20.73;10.85;;;16.00;99.90;;;;;;5092196;28;20263;-68
2022/08/30 08:56:05;;;;;;;17.60;9.88;;;16.00;99.90;;;;;;5111733;28;20188;-68
2022/08/30 08:58:42;;;;;;;18.65;10.57;;;16.20;99.90;;;;;;5115028;27;20228;-68
2022/08/30 09:01:11;;;;;;;18.03;10.93;;;16.20;99.90;;;;;;5113263;28;20220;-68
2022/08/30 09:03:39;;;;;;;19.42;11.10;;;16.10;99.90;;;;;;5104260;28;20205;-68
2022/08/30 09:06:24;;;;;;;18.30;10.52;;;16.20;99.90;;;;;;5093153;28;20255;-68
2022/08/30 09:08:51;;;;;;;19.55;11.15;;;16.20;99.90;;;;;;5092437;28;20220;-68
2022/08/30 09:11:24;;;;;;;19.55;11.20;;;16.30;99.90;;;;;;5091298;28;20204;-68
2022/08/30 09:13:51;;;;;;;20.45;11.55;;;16.30;99.90;;;;;;5100915;27;20204;-68
2022/08/30 09:16:46;;;;;;;17.83;10.80;;;16.40;99.90;;;;;;5120697;27;20238;-68
2022/08/30 09:19:26;;;;;;;21.58;10.90;;;16.40;99.90;;;;;;5084758;28;20193;-68
2022/08/30 09:21:57;;;;;;;20.45;11.10;;;16.50;99.90;;;;;;5097871;28;20197;-68
2022/08/30 09:24:24;;;;;;;16.80;10.30;;;16.70;99.90;;;;;;5111095;27;20197;-68
2022/08/30 09:26:51;;;;;;;18.08;10.32;;;16.60;99.90;;;;;;5099145;27;20263;-68
2022/08/30 09:29:19;;;;;;;15.25;8.93;;;16.70;99.90;;;;;;5092252;28;20222;-68
2022/08/30 09:31:50;;;;;;;12.30;7.50;;;16.70;99.90;;;;;;5108065;28;20212;-68
2022/08/30 09:34:19;;;;;;;14.40;8.48;;;16.70;99.90;;;;;;5111931;28;20217;-68
2022/08/30 09:36:50;;;;;;;11.63;7.65;;;16.70;99.90;;;;;;5112266;28;20584;-68
2022/08/30 09:39:20;;;;;;;11.20;6.35;;;16.90;99.90;;;;;;5112885;28;20251;-68
2022/08/30 09:41:49;;;;;;;11.73;7.18;;;17.00;99.90;;;;;;5118545;27;20196;-68
2022/08/30 09:44:18;;;;;;;10.35;7.63;;;17.00;99.90;;;;;;5133340;27;20200;-68
2022/08/30 09:46:50;;;;;;;15.20;10.07;;;17.10;99.90;;;;;;5119751;27;20566;-68
2022/08/30 09:49:33;;;;;;;15.80;8.35;;;17.20;99.90;;;;;;5112692;28;20635;-68
2022/08/30 09:52:11;;;;;;;9.98;7.22;;;17.20;99.90;;;;;;5092800;28;20209;-68
2022/08/30 09:54:48;;;;;;;9.95;7.85;;;17.30;99.90;;;;;;5092907;28;20236;-68
2022/08/30 09:57:24;;;;;;;11.57;7.78;;;17.30;99.90;;;;;;5092927;28;20544;-68
2022/08/30 10:00:01;;;;;;;10.32;7.72;;;17.30;99.90;;;;;;5093518;28;20205;-68
2022/08/30 10:02:43;;;;;;;11.50;8.25;;;17.40;99.90;;;;;;5093753;28;20237;-68
2022/08/30 10:05:15;;;;;;;10.82;8.00;;;17.40;99.90;;;;;;5108525;28;20229;-68
2022/08/30 10:07:53;;;;;;;11.32;7.43;;;17.40;99.90;;;;;;5092431;28;20186;-68
2022/08/30 10:10:30;;;;;;;7.43;6.25;;;17.50;99.90;;;;;;5091388;28;20228;-68
2022/08/30 10:13:06;;;;;;;17.98;10.88;;;17.40;99.90;;;;;;5092361;28;20205;-68
2022/08/30 10:15:37;;;;;;;16.65;11.02;;;17.60;99.90;;;;;;5091670;28;20206;-68
2022/08/30 10:18:11;;;;;;;20.75;13.85;;;17.40;99.90;;;;;;5092014;28;20212;-68
2022/08/30 10:20:57;;;;;;;18.25;13.13;;;17.50;99.90;;;;;;5107583;28;20202;-68
2022/08/30 10:23:29;;;;;;;18.08;13.00;;;17.50;99.90;;;;;;5121724;28;20200;-68
2022/08/30 10:26:06;;;;;;;16.25;11.20;;;17.60;99.90;;;;;;5112384;28;20200;-68
2022/08/30 10:28:39;;;;;;;15.98;11.52;;;17.50;99.90;;;;;;5111743;28;20208;-68
2022/08/30 10:31:11;;;;;;;17.20;12.00;;;17.60;99.90;;;;;;5098716;28;20232;-68
2022/08/30 10:33:41;;;;;;;17.15;11.57;;;17.60;99.90;;;;;;5091913;28;20202;-68
2022/08/30 10:36:11;;;;;;;16.85;11.63;;;17.60;99.90;;;;;;5091762;28;20224;-68
2022/08/30 10:38:42;;;;;;;17.10;12.70;;;17.70;99.90;;;;;;5091064;28;20664;-68
2022/08/30 10:41:22;;;;;;;15.88;11.48;;;17.60;99.90;;;;;;5091161;28;20208;-68
2022/08/30 10:43:54;;;;;;;15.95;10.95;;;17.70;99.90;;;;;;5092108;28;20207;-68
2022/08/30 10:46:29;;;;;;;15.88;10.68;;;17.70;99.90;;;;;;5091568;28;20216;-68
2022/08/30 10:48:58;;;;;;;17.80;11.90;;;17.80;99.90;;;;;;5095939;28;20208;-68
2022/08/30 10:51:31;;;;;;;18.35;11.95;;;17.70;99.90;;;;;;5111782;28;20209;-68
2022/08/30 10:54:04;;;;;;;16.90;11.48;;;17.80;99.90;;;;;;5110983;28;20196;-68
2022/08/30 10:56:34;;;;;;;15.77;12.13;;;17.80;99.90;;;;;;5112545;28;20207;-68
2022/08/30 10:59:03;;;;;;;14.25;10.70;;;18.00;99.90;;;;;;5115997;28;20205;-68
2022/08/30 11:01:48;;;;;;;16.75;11.35;;;18.00;99.90;;;;;;5115704;28;20201;-68
2022/08/30 11:04:45;;;;;;;15.40;10.23;;;18.10;99.90;;;;;;5116424;27;20196;-68
2022/08/30 11:07:26;;;;;;;14.05;10.60;;;18.10;99.90;;;;;;5092937;28;20682;-68
2022/08/30 11:10:13;;;;;;;11.82;8.20;;;18.50;99.90;;;;;;5094395;28;20229;-68
2022/08/30 11:12:55;;;;;;;8.23;6.65;;;18.50;99.90;;;;;;5095377;28;20244;-68
2022/08/30 11:15:24;;;;;;;6.30;5.30;;;19.00;99.90;;;;;;5095045;28;20212;-68
2022/08/30 11:17:58;;;;;;;7.03;5.82;;;19.20;99.90;;;;;;5110958;28;20257;-68
2022/08/30 11:20:36;;;;;;;6.00;5.32;;;19.40;99.90;;;;;;5106932;28;20193;-69
2022/08/30 11:23:32;;;;;;;6.60;5.18;;;19.60;99.90;;;;;;5104051;27;20202;-69
2022/08/30 11:26:01;;;;;;;4.38;3.95;;;20.00;99.90;;;;;;5110440;27;20631;-68
2022/08/30 11:29:03;;;;;;;5.57;4.40;;;20.60;99.90;;;;;;5122062;27;20200;-69
2022/08/30 11:31:39;;;;;;;4.82;4.32;;;20.40;99.90;;;;;;5114087;28;20217;-69
2022/08/30 11:34:07;;;;;;;4.25;3.75;;;20.20;99.90;;;;;;5114208;28;20208;-69
2022/08/30 11:37:02;;;;;;;4.53;4.10;;;20.50;99.90;;;;;;5115174;28;20220;-68
2022/08/30 11:39:52;;;;;;;4.82;4.40;;;20.50;99.90;;;;;;5107372;28;20201;-68
2022/08/30 11:42:31;;;;;;;4.90;4.40;;;20.40;99.90;;;;;;5114547;28;20292;-68
2022/08/30 11:45:35;;;;;;;3.67;3.30;;;21.10;99.90;;;;;;5114297;28;20212;-68
2022/08/30 11:48:06;;;;;;;4.95;4.35;;;21.70;99.90;;;;;;5114938;28;20215;-68
2022/08/30 11:50:38;;;;;;;4.53;4.00;;;21.40;99.90;;;;;;5113662;28;20233;-68
2022/08/30 11:53:15;;;;;;;5.78;3.83;;;21.30;99.90;;;;;;5114952;28;20647;-68
2022/08/30 11:55:56;;;;;;;7.10;3.92;;;21.50;99.90;;;;;;5114518;28;20572;-68
2022/08/30 11:58:35;;;;;;;4.00;3.70;;;22.00;99.90;;;;;;5096389;28;20192;-68
2022/08/30 12:01:32;;;;;;;4.20;3.63;;;21.30;99.90;;;;;;5113318;28;20783;-68
2022/08/30 12:04:05;;;;;;;4.30;3.28;;;21.50;99.90;;;;;;5113143;27;20201;-68
2022/08/30 12:06:51;;;;;;;3.35;3.05;;;21.30;99.90;;;;;;5109221;27;20678;-68
2022/08/30 12:10:00;;;;;;;5.25;4.00;;;21.00;99.90;;;;;;5112352;28;20690;-68
2022/08/30 12:12:53;;;;;;;5.55;3.75;;;21.00;99.90;;;;;;5113947;28;20204;-68
2022/08/30 12:15:43;;;;;;;3.33;3.13;;;21.00;99.90;;;;;;5094056;28;20559;-68
2022/08/30 12:18:28;;;;;;;4.65;3.40;;;21.60;99.90;;;;;;5092900;28;20206;-69
2022/08/30 12:21:01;;;;;;;5.53;3.90;;;21.90;99.90;;;;;;5097701;28;20189;-69
2022/08/30 12:23:38;;;;;;;4.65;3.72;;;21.80;99.90;;;;;;5110179;28;20197;-70
2022/08/30 12:26:19;;;;;;;4.03;3.63;;;22.20;99.90;;;;;;5089805;28;20499;-69
2022/08/30 12:28:50;;;;;;;4.00;3.60;;;21.50;99.90;;;;;;5104051;28;20214;-70
2022/08/30 12:31:22;;;;;;;5.63;3.80;;;22.10;99.90;;;;;;5105217;28;20666;-69
2022/08/30 12:33:53;;;;;;;4.57;3.25;;;22.10;99.90;;;;;;5108185;28;20284;-70
2022/08/30 12:36:35;;;;;;;3.47;3.22;;;22.20;99.90;;;;;;5108236;28;20231;-70
2022/08/30 12:39:07;;;;;;;3.45;2.67;;;22.00;99.90;;;;;;5111129;28;20197;-70
2022/08/30 12:41:34;;;;;;;3.47;2.70;;;22.10;99.90;;;;;;5106175;27;20200;-72
2022/08/30 12:44:01;;;;;;;2.53;2.33;;;22.50;99.90;;;;;;5102056;27;20240;-71
2022/08/30 12:46:29;;;;;;;2.63;2.42;;;22.70;99.90;;;;;;5117074;27;20677;-70
2022/08/30 12:48:56;;;;;;;5.72;2.83;;;23.30;99.90;;;;;;5133220;27;20203;-70
2022/08/30 12:51:29;;;;;;;2.80;2.60;;;23.70;99.90;;;;;;5116518;27;20212;-69
2022/08/30 12:54:07;;;;;;;2.78;2.58;;;23.20;99.90;;;;;;5118941;27;20203;-70
2022/08/30 12:56:53;;;;;;;2.55;2.35;;;23.00;99.90;;;;;;5105839;28;20227;-69